sensor_id;sensor_type;location;lat;lon;timestamp;P1;durP1;ratioP1;P2;durP2;ratioP2
12707;SDS011;6418;50.824;4.718;2022-09-27T00:01:34;8.73;;;3.37;;
12707;SDS011;6418;50.824;4.718;2022-09-27T00:04:01;11.40;;;3.73;;
12707;SDS011;6418;50.824;4.718;2022-09-27T00:06:29;9.60;;;3.67;;
12707;SDS011;6418;50.824;4.718;2022-09-27T00:08:58;6.20;;;3.63;;
12707;SDS011;6418;50.824;4.718;2022-09-27T00:11:26;11.83;;;3.40;;
12707;SDS011;6418;50.824;4.718;2022-09-27T00:13:56;12.33;;;3.93;;
12707;SDS011;6418;50.824;4.718;2022-09-27T00:16:25;14.53;;;4.03;;
12707;SDS011;6418;50.824;4.718;2022-09-27T00:18:56;6.20;;;2.70;;
12707;SDS011;6418;50.824;4.718;2022-09-27T00:21:25;9.93;;;3.50;;
12707;SDS011;6418;50.824;4.718;2022-09-27T00:23:52;13.40;;;3.80;;
12707;SDS011;6418;50.824;4.718;2022-09-27T00:26:19;8.70;;;3.57;;
12707;SDS011;6418;50.824;4.718;2022-09-27T00:28:46;10.50;;;3.63;;
12707;SDS011;6418;50.824;4.718;2022-09-27T00:31:17;11.63;;;4.13;;
12707;SDS011;6418;50.824;4.718;2022-09-27T00:33:46;10.87;;;4.17;;
12707;SDS011;6418;50.824;4.718;2022-09-27T00:36:14;13.50;;;4.53;;
12707;SDS011;6418;50.824;4.718;2022-09-27T00:38:43;15.47;;;4.47;;
12707;SDS011;6418;50.824;4.718;2022-09-27T00:41:12;14.57;;;4.50;;
12707;SDS011;6418;50.824;4.718;2022-09-27T00:43:45;13.90;;;5.20;;
12707;SDS011;6418;50.824;4.718;2022-09-27T00:46:15;17.63;;;4.87;;
12707;SDS011;6418;50.824;4.718;2022-09-27T00:48:48;14.63;;;5.13;;
12707;SDS011;6418;50.824;4.718;2022-09-27T00:51:25;17.10;;;5.50;;
12707;SDS011;6418;50.824;4.718;2022-09-27T00:53:52;15.43;;;6.07;;
12707;SDS011;6418;50.824;4.718;2022-09-27T00:56:23;16.77;;;5.07;;
12707;SDS011;6418;50.824;4.718;2022-09-27T00:58:55;15.20;;;5.50;;
12707;SDS011;6418;50.824;4.718;2022-09-27T01:01:28;18.03;;;4.90;;
12707;SDS011;6418;50.824;4.718;2022-09-27T01:03:56;20.83;;;4.43;;
12707;SDS011;6418;50.824;4.718;2022-09-27T01:06:27;14.90;;;4.67;;
12707;SDS011;6418;50.824;4.718;2022-09-27T01:08:54;12.47;;;4.30;;
12707;SDS011;6418;50.824;4.718;2022-09-27T01:11:24;13.77;;;4.80;;
12707;SDS011;6418;50.824;4.718;2022-09-27T01:14:03;16.10;;;4.37;;
12707;SDS011;6418;50.824;4.718;2022-09-27T01:16:45;17.43;;;4.40;;
12707;SDS011;6418;50.824;4.718;2022-09-27T01:19:22;12.30;;;4.60;;
12707;SDS011;6418;50.824;4.718;2022-09-27T01:22:05;12.27;;;4.00;;
12707;SDS011;6418;50.824;4.718;2022-09-27T01:24:46;9.40;;;3.90;;
12707;SDS011;6418;50.824;4.718;2022-09-27T01:27:40;10.47;;;3.80;;
12707;SDS011;6418;50.824;4.718;2022-09-27T01:30:37;8.67;;;3.67;;
12707;SDS011;6418;50.824;4.718;2022-09-27T01:36:16;12.13;;;3.37;;
12707;SDS011;6418;50.824;4.718;2022-09-27T01:38:53;9.20;;;3.27;;
12707;SDS011;6418;50.824;4.718;2022-09-27T01:41:31;12.20;;;3.50;;
12707;SDS011;6418;50.824;4.718;2022-09-27T01:44:02;9.03;;;3.30;;
12707;SDS011;6418;50.824;4.718;2022-09-27T01:46:34;12.00;;;3.33;;
12707;SDS011;6418;50.824;4.718;2022-09-27T01:49:04;10.20;;;3.37;;
12707;SDS011;6418;50.824;4.718;2022-09-27T01:51:37;9.37;;;2.90;;
12707;SDS011;6418;50.824;4.718;2022-09-27T01:54:09;6.50;;;3.30;;
12707;SDS011;6418;50.824;4.718;2022-09-27T01:56:42;7.43;;;3.07;;
12707;SDS011;6418;50.824;4.718;2022-09-27T01:59:13;10.23;;;3.50;;
12707;SDS011;6418;50.824;4.718;2022-09-27T02:01:46;10.03;;;3.50;;
12707;SDS011;6418;50.824;4.718;2022-09-27T02:04:18;12.30;;;3.73;;
12707;SDS011;6418;50.824;4.718;2022-09-27T02:06:47;11.83;;;3.77;;
12707;SDS011;6418;50.824;4.718;2022-09-27T02:09:19;11.33;;;3.30;;
12707;SDS011;6418;50.824;4.718;2022-09-27T02:11:51;7.37;;;3.63;;
12707;SDS011;6418;50.824;4.718;2022-09-27T02:14:24;11.73;;;3.40;;
12707;SDS011;6418;50.824;4.718;2022-09-27T02:16:57;8.20;;;3.03;;
12707;SDS011;6418;50.824;4.718;2022-09-27T02:19:33;11.40;;;3.20;;
12707;SDS011;6418;50.824;4.718;2022-09-27T02:22:09;13.07;;;3.40;;
12707;SDS011;6418;50.824;4.718;2022-09-27T02:24:40;9.43;;;3.10;;
12707;SDS011;6418;50.824;4.718;2022-09-27T02:27:19;11.63;;;3.60;;
12707;SDS011;6418;50.824;4.718;2022-09-27T02:29:52;8.73;;;3.20;;
12707;SDS011;6418;50.824;4.718;2022-09-27T02:32:26;9.97;;;3.47;;
12707;SDS011;6418;50.824;4.718;2022-09-27T02:34:53;9.53;;;3.43;;
12707;SDS011;6418;50.824;4.718;2022-09-27T02:37:22;9.97;;;3.47;;
12707;SDS011;6418;50.824;4.718;2022-09-27T02:39:49;9.00;;;3.37;;
12707;SDS011;6418;50.824;4.718;2022-09-27T02:42:16;12.07;;;3.30;;
12707;SDS011;6418;50.824;4.718;2022-09-27T02:44:43;10.73;;;3.53;;
12707;SDS011;6418;50.824;4.718;2022-09-27T02:47:18;8.57;;;3.67;;
12707;SDS011;6418;50.824;4.718;2022-09-27T02:50:11;6.93;;;3.40;;
12707;SDS011;6418;50.824;4.718;2022-09-27T02:52:54;7.53;;;3.10;;
12707;SDS011;6418;50.824;4.718;2022-09-27T02:55:35;9.40;;;3.07;;
12707;SDS011;6418;50.824;4.718;2022-09-27T02:58:10;9.03;;;3.23;;
12707;SDS011;6418;50.824;4.718;2022-09-27T03:00:46;8.40;;;3.50;;
12707;SDS011;6418;50.824;4.718;2022-09-27T03:03:19;9.97;;;3.20;;
12707;SDS011;6418;50.824;4.718;2022-09-27T03:05:54;5.77;;;3.00;;
12707;SDS011;6418;50.824;4.718;2022-09-27T03:08:27;9.73;;;3.40;;
12707;SDS011;6418;50.824;4.718;2022-09-27T03:10:54;7.83;;;3.20;;
12707;SDS011;6418;50.824;4.718;2022-09-27T03:13:21;8.97;;;3.07;;
12707;SDS011;6418;50.824;4.718;2022-09-27T03:15:48;8.27;;;2.93;;
12707;SDS011;6418;50.824;4.718;2022-09-27T03:18:15;4.73;;;2.57;;
12707;SDS011;6418;50.824;4.718;2022-09-27T03:20:42;6.80;;;3.27;;
12707;SDS011;6418;50.824;4.718;2022-09-27T03:23:10;7.13;;;2.77;;
12707;SDS011;6418;50.824;4.718;2022-09-27T03:25:37;10.53;;;3.13;;
12707;SDS011;6418;50.824;4.718;2022-09-27T03:28:04;7.90;;;3.17;;
12707;SDS011;6418;50.824;4.718;2022-09-27T03:30:31;5.00;;;2.97;;
12707;SDS011;6418;50.824;4.718;2022-09-27T03:32:58;8.47;;;3.03;;
12707;SDS011;6418;50.824;4.718;2022-09-27T03:35:25;9.83;;;2.93;;
12707;SDS011;6418;50.824;4.718;2022-09-27T03:37:52;10.47;;;3.30;;
12707;SDS011;6418;50.824;4.718;2022-09-27T03:40:20;7.27;;;3.00;;
12707;SDS011;6418;50.824;4.718;2022-09-27T03:42:47;8.27;;;3.10;;
12707;SDS011;6418;50.824;4.718;2022-09-27T03:45:15;7.90;;;3.10;;
12707;SDS011;6418;50.824;4.718;2022-09-27T03:47:42;9.70;;;3.10;;
12707;SDS011;6418;50.824;4.718;2022-09-27T03:50:09;10.73;;;3.63;;
12707;SDS011;6418;50.824;4.718;2022-09-27T03:52:37;7.23;;;3.20;;
12707;SDS011;6418;50.824;4.718;2022-09-27T03:55:04;9.77;;;3.40;;
12707;SDS011;6418;50.824;4.718;2022-09-27T03:57:33;4.87;;;3.20;;
12707;SDS011;6418;50.824;4.718;2022-09-27T04:00:00;14.10;;;3.30;;
12707;SDS011;6418;50.824;4.718;2022-09-27T04:02:28;9.20;;;3.17;;
12707;SDS011;6418;50.824;4.718;2022-09-27T04:04:55;5.73;;;3.17;;
12707;SDS011;6418;50.824;4.718;2022-09-27T04:07:22;7.10;;;3.37;;
12707;SDS011;6418;50.824;4.718;2022-09-27T04:09:49;7.03;;;3.23;;
12707;SDS011;6418;50.824;4.718;2022-09-27T04:12:16;10.00;;;3.40;;
12707;SDS011;6418;50.824;4.718;2022-09-27T04:14:44;9.30;;;3.60;;
12707;SDS011;6418;50.824;4.718;2022-09-27T04:17:11;8.97;;;3.30;;
12707;SDS011;6418;50.824;4.718;2022-09-27T04:19:38;9.30;;;4.00;;
12707;SDS011;6418;50.824;4.718;2022-09-27T04:22:05;8.20;;;3.50;;
12707;SDS011;6418;50.824;4.718;2022-09-27T04:24:32;10.87;;;3.87;;
12707;SDS011;6418;50.824;4.718;2022-09-27T04:26:59;13.33;;;4.30;;
12707;SDS011;6418;50.824;4.718;2022-09-27T04:29:26;10.03;;;3.70;;
12707;SDS011;6418;50.824;4.718;2022-09-27T04:31:54;7.73;;;3.97;;
12707;SDS011;6418;50.824;4.718;2022-09-27T04:34:21;12.50;;;3.60;;
12707;SDS011;6418;50.824;4.718;2022-09-27T04:37:08;16.23;;;4.30;;
12707;SDS011;6418;50.824;4.718;2022-09-27T04:39:35;8.20;;;3.70;;
12707;SDS011;6418;50.824;4.718;2022-09-27T04:42:03;13.27;;;3.90;;
12707;SDS011;6418;50.824;4.718;2022-09-27T04:44:31;11.70;;;4.30;;
12707;SDS011;6418;50.824;4.718;2022-09-27T04:46:59;10.37;;;3.93;;
12707;SDS011;6418;50.824;4.718;2022-09-27T04:49:26;9.13;;;3.90;;
12707;SDS011;6418;50.824;4.718;2022-09-27T04:51:53;10.70;;;4.00;;
12707;SDS011;6418;50.824;4.718;2022-09-27T04:54:20;13.43;;;4.20;;
12707;SDS011;6418;50.824;4.718;2022-09-27T04:56:47;16.57;;;4.63;;
12707;SDS011;6418;50.824;4.718;2022-09-27T04:59:14;14.07;;;5.00;;
12707;SDS011;6418;50.824;4.718;2022-09-27T05:01:41;12.50;;;4.50;;
12707;SDS011;6418;50.824;4.718;2022-09-27T05:04:10;17.93;;;4.63;;
12707;SDS011;6418;50.824;4.718;2022-09-27T05:06:37;9.97;;;4.70;;
12707;SDS011;6418;50.824;4.718;2022-09-27T05:09:04;10.87;;;4.43;;
12707;SDS011;6418;50.824;4.718;2022-09-27T05:11:31;12.83;;;4.97;;
12707;SDS011;6418;50.824;4.718;2022-09-27T05:14:01;13.53;;;5.47;;
12707;SDS011;6418;50.824;4.718;2022-09-27T05:16:28;12.90;;;5.37;;
12707;SDS011;6418;50.824;4.718;2022-09-27T05:18:56;12.87;;;5.30;;
12707;SDS011;6418;50.824;4.718;2022-09-27T05:21:24;13.53;;;5.70;;
12707;SDS011;6418;50.824;4.718;2022-09-27T05:23:51;14.63;;;6.13;;
12707;SDS011;6418;50.824;4.718;2022-09-27T05:26:19;17.53;;;6.50;;
12707;SDS011;6418;50.824;4.718;2022-09-27T05:28:46;15.53;;;6.23;;
12707;SDS011;6418;50.824;4.718;2022-09-27T05:31:13;15.97;;;6.63;;
12707;SDS011;6418;50.824;4.718;2022-09-27T05:33:40;16.80;;;6.50;;
12707;SDS011;6418;50.824;4.718;2022-09-27T05:36:07;22.77;;;7.27;;
12707;SDS011;6418;50.824;4.718;2022-09-27T05:38:36;16.03;;;7.53;;
12707;SDS011;6418;50.824;4.718;2022-09-27T05:41:04;20.13;;;7.47;;
12707;SDS011;6418;50.824;4.718;2022-09-27T05:43:31;16.27;;;7.67;;
12707;SDS011;6418;50.824;4.718;2022-09-27T05:45:58;19.00;;;7.80;;
12707;SDS011;6418;50.824;4.718;2022-09-27T05:48:25;15.23;;;7.00;;
12707;SDS011;6418;50.824;4.718;2022-09-27T05:50:54;19.17;;;7.80;;
12707;SDS011;6418;50.824;4.718;2022-09-27T05:53:21;18.53;;;7.33;;
12707;SDS011;6418;50.824;4.718;2022-09-27T05:55:49;19.73;;;7.93;;
12707;SDS011;6418;50.824;4.718;2022-09-27T05:58:16;20.50;;;7.70;;
12707;SDS011;6418;50.824;4.718;2022-09-27T06:00:43;19.60;;;7.70;;
12707;SDS011;6418;50.824;4.718;2022-09-27T06:03:10;17.67;;;7.47;;
12707;SDS011;6418;50.824;4.718;2022-09-27T06:05:38;19.47;;;8.20;;
12707;SDS011;6418;50.824;4.718;2022-09-27T06:08:06;14.50;;;7.80;;
12707;SDS011;6418;50.824;4.718;2022-09-27T06:10:35;18.60;;;8.03;;
12707;SDS011;6418;50.824;4.718;2022-09-27T06:13:04;18.63;;;7.70;;
12707;SDS011;6418;50.824;4.718;2022-09-27T06:15:33;18.10;;;8.03;;
12707;SDS011;6418;50.824;4.718;2022-09-27T06:18:02;20.40;;;8.10;;
12707;SDS011;6418;50.824;4.718;2022-09-27T06:20:30;19.00;;;8.53;;
12707;SDS011;6418;50.824;4.718;2022-09-27T06:23:02;18.83;;;8.23;;
12707;SDS011;6418;50.824;4.718;2022-09-27T06:25:33;20.73;;;8.63;;
12707;SDS011;6418;50.824;4.718;2022-09-27T06:28:00;17.60;;;8.33;;
12707;SDS011;6418;50.824;4.718;2022-09-27T06:30:29;18.33;;;8.03;;
12707;SDS011;6418;50.824;4.718;2022-09-27T06:32:56;16.63;;;7.73;;
12707;SDS011;6418;50.824;4.718;2022-09-27T06:35:24;15.20;;;7.60;;
12707;SDS011;6418;50.824;4.718;2022-09-27T06:37:52;15.83;;;7.80;;
12707;SDS011;6418;50.824;4.718;2022-09-27T06:40:19;21.07;;;8.63;;
12707;SDS011;6418;50.824;4.718;2022-09-27T06:42:48;18.67;;;7.77;;
12707;SDS011;6418;50.824;4.718;2022-09-27T06:45:15;16.97;;;8.17;;
12707;SDS011;6418;50.824;4.718;2022-09-27T06:47:44;21.27;;;7.50;;
12707;SDS011;6418;50.824;4.718;2022-09-27T06:50:11;18.17;;;8.33;;
12707;SDS011;6418;50.824;4.718;2022-09-27T06:52:45;17.20;;;7.93;;
12707;SDS011;6418;50.824;4.718;2022-09-27T06:55:14;17.13;;;8.20;;
12707;SDS011;6418;50.824;4.718;2022-09-27T06:57:43;15.60;;;7.53;;
12707;SDS011;6418;50.824;4.718;2022-09-27T07:00:27;25.83;;;8.63;;
12707;SDS011;6418;50.824;4.718;2022-09-27T07:02:56;20.23;;;8.50;;
12707;SDS011;6418;50.824;4.718;2022-09-27T07:05:26;18.03;;;8.37;;
12707;SDS011;6418;50.824;4.718;2022-09-27T07:07:54;18.03;;;8.03;;
12707;SDS011;6418;50.824;4.718;2022-09-27T07:10:21;19.17;;;8.20;;
12707;SDS011;6418;50.824;4.718;2022-09-27T07:12:50;16.27;;;7.80;;
12707;SDS011;6418;50.824;4.718;2022-09-27T07:15:17;18.93;;;8.77;;
12707;SDS011;6418;50.824;4.718;2022-09-27T07:17:45;17.73;;;8.40;;
12707;SDS011;6418;50.824;4.718;2022-09-27T07:20:14;17.93;;;8.50;;
12707;SDS011;6418;50.824;4.718;2022-09-27T07:22:41;19.00;;;8.73;;
12707;SDS011;6418;50.824;4.718;2022-09-27T07:25:09;18.80;;;8.17;;
12707;SDS011;6418;50.824;4.718;2022-09-27T07:27:37;20.53;;;8.20;;
12707;SDS011;6418;50.824;4.718;2022-09-27T07:30:06;17.67;;;8.80;;
12707;SDS011;6418;50.824;4.718;2022-09-27T07:32:34;17.53;;;8.93;;
12707;SDS011;6418;50.824;4.718;2022-09-27T07:35:01;21.80;;;9.40;;
12707;SDS011;6418;50.824;4.718;2022-09-27T07:37:31;20.63;;;9.07;;
12707;SDS011;6418;50.824;4.718;2022-09-27T07:39:59;20.30;;;8.60;;
12707;SDS011;6418;50.824;4.718;2022-09-27T07:42:26;16.37;;;8.73;;
12707;SDS011;6418;50.824;4.718;2022-09-27T07:44:55;19.57;;;8.77;;
12707;SDS011;6418;50.824;4.718;2022-09-27T07:47:22;16.47;;;8.93;;
12707;SDS011;6418;50.824;4.718;2022-09-27T07:49:49;17.90;;;9.40;;
12707;SDS011;6418;50.824;4.718;2022-09-27T07:52:16;17.73;;;9.17;;
12707;SDS011;6418;50.824;4.718;2022-09-27T07:54:45;16.07;;;9.03;;
12707;SDS011;6418;50.824;4.718;2022-09-27T07:57:13;18.57;;;8.97;;
12707;SDS011;6418;50.824;4.718;2022-09-27T07:59:41;20.27;;;9.33;;
12707;SDS011;6418;50.824;4.718;2022-09-27T08:02:12;18.17;;;9.57;;
12707;SDS011;6418;50.824;4.718;2022-09-27T08:04:40;19.20;;;8.93;;
12707;SDS011;6418;50.824;4.718;2022-09-27T08:07:08;19.93;;;9.33;;
12707;SDS011;6418;50.824;4.718;2022-09-27T08:09:35;18.23;;;9.83;;
12707;SDS011;6418;50.824;4.718;2022-09-27T08:12:03;20.37;;;9.40;;
12707;SDS011;6418;50.824;4.718;2022-09-27T08:14:30;16.13;;;9.27;;
12707;SDS011;6418;50.824;4.718;2022-09-27T08:16:57;18.73;;;9.53;;
12707;SDS011;6418;50.824;4.718;2022-09-27T08:19:24;22.77;;;9.20;;
12707;SDS011;6418;50.824;4.718;2022-09-27T08:21:51;16.37;;;9.10;;
12707;SDS011;6418;50.824;4.718;2022-09-27T08:24:20;18.80;;;9.30;;
12707;SDS011;6418;50.824;4.718;2022-09-27T08:26:47;15.90;;;8.40;;
12707;SDS011;6418;50.824;4.718;2022-09-27T08:29:15;16.10;;;9.23;;
12707;SDS011;6418;50.824;4.718;2022-09-27T08:31:42;15.70;;;8.53;;
12707;SDS011;6418;50.824;4.718;2022-09-27T08:34:09;15.90;;;8.40;;
12707;SDS011;6418;50.824;4.718;2022-09-27T08:36:36;14.53;;;7.60;;
12707;SDS011;6418;50.824;4.718;2022-09-27T08:39:03;16.60;;;7.73;;
12707;SDS011;6418;50.824;4.718;2022-09-27T08:41:33;14.37;;;7.00;;
12707;SDS011;6418;50.824;4.718;2022-09-27T08:44:06;13.17;;;7.40;;
12707;SDS011;6418;50.824;4.718;2022-09-27T08:46:40;15.30;;;7.20;;
12707;SDS011;6418;50.824;4.718;2022-09-27T08:49:16;12.43;;;6.30;;
12707;SDS011;6418;50.824;4.718;2022-09-27T08:51:47;13.37;;;6.57;;
12707;SDS011;6418;50.824;4.718;2022-09-27T08:54:19;14.17;;;6.37;;
12707;SDS011;6418;50.824;4.718;2022-09-27T08:56:48;15.00;;;7.20;;
12707;SDS011;6418;50.824;4.718;2022-09-27T08:59:15;13.63;;;6.27;;
12707;SDS011;6418;50.824;4.718;2022-09-27T09:01:47;14.07;;;6.97;;
12707;SDS011;6418;50.824;4.718;2022-09-27T09:04:18;16.40;;;6.83;;
12707;SDS011;6418;50.824;4.718;2022-09-27T09:06:54;12.00;;;6.03;;
12707;SDS011;6418;50.824;4.718;2022-09-27T09:09:28;15.37;;;6.17;;
12707;SDS011;6418;50.824;4.718;2022-09-27T09:12:06;15.50;;;6.60;;
12707;SDS011;6418;50.824;4.718;2022-09-27T09:15:13;15.93;;;5.97;;
12707;SDS011;6418;50.824;4.718;2022-09-27T09:17:57;14.07;;;6.73;;
12707;SDS011;6418;50.824;4.718;2022-09-27T09:20:46;11.83;;;5.63;;
12707;SDS011;6418;50.824;4.718;2022-09-27T09:26:23;10.77;;;5.50;;
12707;SDS011;6418;50.824;4.718;2022-09-27T09:29:03;12.77;;;5.97;;
12707;SDS011;6418;50.824;4.718;2022-09-27T09:31:39;10.93;;;5.53;;
12707;SDS011;6418;50.824;4.718;2022-09-27T09:34:11;10.33;;;5.50;;
12707;SDS011;6418;50.824;4.718;2022-09-27T09:36:43;9.57;;;5.03;;
12707;SDS011;6418;50.824;4.718;2022-09-27T09:39:15;14.90;;;4.90;;
12707;SDS011;6418;50.824;4.718;2022-09-27T09:41:54;10.53;;;4.90;;
12707;SDS011;6418;50.824;4.718;2022-09-27T09:44:31;11.63;;;5.20;;
12707;SDS011;6418;50.824;4.718;2022-09-27T09:47:07;13.60;;;5.80;;
12707;SDS011;6418;50.824;4.718;2022-09-27T09:49:43;12.53;;;5.63;;
12707;SDS011;6418;50.824;4.718;2022-09-27T09:52:17;9.60;;;4.90;;
12707;SDS011;6418;50.824;4.718;2022-09-27T09:54:48;9.73;;;4.80;;
12707;SDS011;6418;50.824;4.718;2022-09-27T09:57:21;10.07;;;5.07;;
12707;SDS011;6418;50.824;4.718;2022-09-27T09:59:55;8.30;;;4.80;;
12707;SDS011;6418;50.824;4.718;2022-09-27T10:02:27;12.53;;;5.40;;
12707;SDS011;6418;50.824;4.718;2022-09-27T10:04:59;11.40;;;4.60;;
12707;SDS011;6418;50.824;4.718;2022-09-27T10:07:27;9.83;;;4.17;;
12707;SDS011;6418;50.824;4.718;2022-09-27T10:09:56;10.83;;;4.10;;
12707;SDS011;6418;50.824;4.718;2022-09-27T10:12:26;10.60;;;4.27;;
12707;SDS011;6418;50.824;4.718;2022-09-27T10:14:54;7.90;;;3.83;;
12707;SDS011;6418;50.824;4.718;2022-09-27T10:17:26;6.80;;;3.70;;
12707;SDS011;6418;50.824;4.718;2022-09-27T10:20:02;10.10;;;4.30;;
12707;SDS011;6418;50.824;4.718;2022-09-27T10:22:32;9.73;;;4.30;;
12707;SDS011;6418;50.824;4.718;2022-09-27T10:25:04;11.97;;;4.57;;
12707;SDS011;6418;50.824;4.718;2022-09-27T10:27:37;10.43;;;4.63;;
12707;SDS011;6418;50.824;4.718;2022-09-27T10:30:12;7.37;;;4.30;;
12707;SDS011;6418;50.824;4.718;2022-09-27T10:32:49;9.63;;;4.37;;
12707;SDS011;6418;50.824;4.718;2022-09-27T10:35:32;10.07;;;4.40;;
12707;SDS011;6418;50.824;4.718;2022-09-27T10:38:15;11.73;;;4.73;;
12707;SDS011;6418;50.824;4.718;2022-09-27T10:40:47;10.23;;;4.40;;
12707;SDS011;6418;50.824;4.718;2022-09-27T10:43:23;17.37;;;4.80;;
12707;SDS011;6418;50.824;4.718;2022-09-27T10:45:58;11.90;;;4.33;;
12707;SDS011;6418;50.824;4.718;2022-09-27T10:48:29;10.80;;;4.53;;
12707;SDS011;6418;50.824;4.718;2022-09-27T10:50:58;12.60;;;4.80;;
12707;SDS011;6418;50.824;4.718;2022-09-27T10:53:26;16.67;;;5.03;;
12707;SDS011;6418;50.824;4.718;2022-09-27T10:55:56;11.70;;;4.73;;
12707;SDS011;6418;50.824;4.718;2022-09-27T10:58:24;14.87;;;5.07;;
12707;SDS011;6418;50.824;4.718;2022-09-27T11:00:54;13.60;;;5.00;;
12707;SDS011;6418;50.824;4.718;2022-09-27T11:03:22;11.83;;;4.60;;
12707;SDS011;6418;50.824;4.718;2022-09-27T11:05:53;14.73;;;4.80;;
12707;SDS011;6418;50.824;4.718;2022-09-27T11:08:28;14.97;;;4.83;;
12707;SDS011;6418;50.824;4.718;2022-09-27T11:11:04;12.87;;;5.07;;
12707;SDS011;6418;50.824;4.718;2022-09-27T11:13:33;13.53;;;5.17;;
12707;SDS011;6418;50.824;4.718;2022-09-27T11:18:58;12.07;;;5.20;;
12707;SDS011;6418;50.824;4.718;2022-09-27T11:21:40;14.03;;;5.63;;
12707;SDS011;6418;50.824;4.718;2022-09-27T11:24:18;13.03;;;5.23;;
12707;SDS011;6418;50.824;4.718;2022-09-27T11:27:00;12.60;;;5.67;;
12707;SDS011;6418;50.824;4.718;2022-09-27T11:29:38;17.47;;;5.83;;
12707;SDS011;6418;50.824;4.718;2022-09-27T11:32:24;12.87;;;6.03;;
12707;SDS011;6418;50.824;4.718;2022-09-27T11:35:01;16.47;;;6.27;;
12707;SDS011;6418;50.824;4.718;2022-09-27T11:37:41;15.67;;;6.00;;
12707;SDS011;6418;50.824;4.718;2022-09-27T11:40:22;16.50;;;6.20;;
12707;SDS011;6418;50.824;4.718;2022-09-27T11:43:02;14.43;;;5.83;;
12707;SDS011;6418;50.824;4.718;2022-09-27T11:45:51;17.87;;;7.27;;
12707;SDS011;6418;50.824;4.718;2022-09-27T11:48:41;17.57;;;7.20;;
12707;SDS011;6418;50.824;4.718;2022-09-27T11:51:36;15.37;;;6.47;;
12707;SDS011;6418;50.824;4.718;2022-09-27T11:54:25;12.70;;;4.90;;
12707;SDS011;6418;50.824;4.718;2022-09-27T11:57:04;8.50;;;4.10;;
12707;SDS011;6418;50.824;4.718;2022-09-27T11:59:41;8.87;;;4.03;;
12707;SDS011;6418;50.824;4.718;2022-09-27T12:02:51;8.77;;;4.10;;
12707;SDS011;6418;50.824;4.718;2022-09-27T12:05:33;8.03;;;3.60;;
12707;SDS011;6418;50.824;4.718;2022-09-27T12:08:11;7.27;;;3.50;;
12707;SDS011;6418;50.824;4.718;2022-09-27T12:10:55;9.20;;;3.37;;
12707;SDS011;6418;50.824;4.718;2022-09-27T12:13:28;7.23;;;3.40;;
12707;SDS011;6418;50.824;4.718;2022-09-27T12:16:00;10.57;;;3.57;;
12707;SDS011;6418;50.824;4.718;2022-09-27T12:18:29;6.97;;;2.97;;
12707;SDS011;6418;50.824;4.718;2022-09-27T12:20:58;9.83;;;3.00;;
12707;SDS011;6418;50.824;4.718;2022-09-27T12:23:28;7.80;;;2.73;;
12707;SDS011;6418;50.824;4.718;2022-09-27T12:26:03;11.40;;;3.03;;
12707;SDS011;6418;50.824;4.718;2022-09-27T12:28:33;7.17;;;3.10;;
12707;SDS011;6418;50.824;4.718;2022-09-27T12:31:06;9.80;;;3.43;;
12707;SDS011;6418;50.824;4.718;2022-09-27T12:33:42;7.97;;;3.23;;
12707;SDS011;6418;50.824;4.718;2022-09-27T12:36:16;8.90;;;3.10;;
12707;SDS011;6418;50.824;4.718;2022-09-27T12:38:46;6.17;;;2.90;;
12707;SDS011;6418;50.824;4.718;2022-09-27T12:41:21;8.63;;;3.03;;
12707;SDS011;6418;50.824;4.718;2022-09-27T12:43:51;7.23;;;2.97;;
12707;SDS011;6418;50.824;4.718;2022-09-27T12:46:21;5.80;;;3.10;;
12707;SDS011;6418;50.824;4.718;2022-09-27T12:48:58;5.70;;;2.70;;
12707;SDS011;6418;50.824;4.718;2022-09-27T12:51:31;8.77;;;3.40;;
12707;SDS011;6418;50.824;4.718;2022-09-27T12:54:07;7.53;;;3.43;;
12707;SDS011;6418;50.824;4.718;2022-09-27T12:56:50;10.80;;;3.50;;
12707;SDS011;6418;50.824;4.718;2022-09-27T12:59:38;11.87;;;3.70;;
12707;SDS011;6418;50.824;4.718;2022-09-27T13:02:17;9.47;;;4.00;;
12707;SDS011;6418;50.824;4.718;2022-09-27T13:05:20;11.60;;;4.00;;
12707;SDS011;6418;50.824;4.718;2022-09-27T13:08:00;12.60;;;4.30;;
12707;SDS011;6418;50.824;4.718;2022-09-27T13:10:45;10.70;;;4.10;;
12707;SDS011;6418;50.824;4.718;2022-09-27T13:13:21;13.17;;;4.43;;
12707;SDS011;6418;50.824;4.718;2022-09-27T13:15:53;9.77;;;3.80;;
12707;SDS011;6418;50.824;4.718;2022-09-27T13:18:29;10.23;;;3.40;;
12707;SDS011;6418;50.824;4.718;2022-09-27T13:24:28;12.13;;;4.00;;
12707;SDS011;6418;50.824;4.718;2022-09-27T13:26:56;6.87;;;3.70;;
12707;SDS011;6418;50.824;4.718;2022-09-27T13:29:28;10.03;;;4.00;;
12707;SDS011;6418;50.824;4.718;2022-09-27T13:32:14;9.53;;;4.13;;
12707;SDS011;6418;50.824;4.718;2022-09-27T13:34:43;9.20;;;3.90;;
12707;SDS011;6418;50.824;4.718;2022-09-27T13:40:19;10.90;;;3.80;;
12707;SDS011;6418;50.824;4.718;2022-09-27T13:42:51;7.63;;;3.53;;
12707;SDS011;6418;50.824;4.718;2022-09-27T13:45:37;10.70;;;3.50;;
12707;SDS011;6418;50.824;4.718;2022-09-27T13:48:11;8.00;;;3.20;;
12707;SDS011;6418;50.824;4.718;2022-09-27T13:50:44;8.27;;;3.30;;
12707;SDS011;6418;50.824;4.718;2022-09-27T13:53:18;8.20;;;2.97;;
12707;SDS011;6418;50.824;4.718;2022-09-27T13:55:49;5.50;;;2.90;;
12707;SDS011;6418;50.824;4.718;2022-09-27T13:58:29;6.13;;;3.20;;
12707;SDS011;6418;50.824;4.718;2022-09-27T14:01:02;7.50;;;3.10;;
12707;SDS011;6418;50.824;4.718;2022-09-27T14:03:38;7.20;;;2.80;;
12707;SDS011;6418;50.824;4.718;2022-09-27T14:06:16;8.93;;;2.53;;
12707;SDS011;6418;50.824;4.718;2022-09-27T14:08:48;7.87;;;3.10;;
12707;SDS011;6418;50.824;4.718;2022-09-27T14:11:19;7.90;;;2.67;;
12707;SDS011;6418;50.824;4.718;2022-09-27T14:13:50;8.10;;;2.80;;
12707;SDS011;6418;50.824;4.718;2022-09-27T14:16:18;6.63;;;2.70;;
12707;SDS011;6418;50.824;4.718;2022-09-27T14:18:47;8.30;;;3.20;;
12707;SDS011;6418;50.824;4.718;2022-09-27T14:21:20;9.30;;;3.33;;
12707;SDS011;6418;50.824;4.718;2022-09-27T14:26:48;8.90;;;3.03;;
12707;SDS011;6418;50.824;4.718;2022-09-27T14:29:29;6.97;;;3.20;;
12707;SDS011;6418;50.824;4.718;2022-09-27T14:32:04;8.07;;;2.90;;
12707;SDS011;6418;50.824;4.718;2022-09-27T14:34:36;11.07;;;3.20;;
12707;SDS011;6418;50.824;4.718;2022-09-27T14:37:04;8.87;;;3.13;;
12707;SDS011;6418;50.824;4.718;2022-09-27T14:39:54;10.57;;;3.20;;
12707;SDS011;6418;50.824;4.718;2022-09-27T14:42:24;8.57;;;3.60;;
12707;SDS011;6418;50.824;4.718;2022-09-27T14:44:56;11.70;;;3.47;;
12707;SDS011;6418;50.824;4.718;2022-09-27T14:47:27;12.37;;;3.67;;
12707;SDS011;6418;50.824;4.718;2022-09-27T14:49:58;7.97;;;3.40;;
12707;SDS011;6418;50.824;4.718;2022-09-27T14:52:26;7.93;;;2.97;;
12707;SDS011;6418;50.824;4.718;2022-09-27T14:54:59;10.40;;;3.17;;
12707;SDS011;6418;50.824;4.718;2022-09-27T14:57:29;9.10;;;3.57;;
12707;SDS011;6418;50.824;4.718;2022-09-27T14:59:59;11.63;;;3.30;;
12707;SDS011;6418;50.824;4.718;2022-09-27T15:02:38;11.57;;;3.17;;
12707;SDS011;6418;50.824;4.718;2022-09-27T15:05:12;8.57;;;3.10;;
12707;SDS011;6418;50.824;4.718;2022-09-27T15:07:41;8.57;;;3.33;;
12707;SDS011;6418;50.824;4.718;2022-09-27T15:10:11;7.67;;;2.93;;
12707;SDS011;6418;50.824;4.718;2022-09-27T15:12:41;10.20;;;3.23;;
12707;SDS011;6418;50.824;4.718;2022-09-27T15:15:12;11.00;;;3.30;;
12707;SDS011;6418;50.824;4.718;2022-09-27T15:17:42;11.03;;;3.90;;
12707;SDS011;6418;50.824;4.718;2022-09-27T15:20:21;16.70;;;7.23;;
12707;SDS011;6418;50.824;4.718;2022-09-27T15:22:50;9.47;;;3.90;;
12707;SDS011;6418;50.824;4.718;2022-09-27T15:25:19;11.30;;;4.33;;
12707;SDS011;6418;50.824;4.718;2022-09-27T15:27:49;10.13;;;4.03;;
12707;SDS011;6418;50.824;4.718;2022-09-27T15:30:18;11.13;;;4.20;;
12707;SDS011;6418;50.824;4.718;2022-09-27T15:32:51;12.40;;;4.90;;
12707;SDS011;6418;50.824;4.718;2022-09-27T15:35:23;13.70;;;6.37;;
12707;SDS011;6418;50.824;4.718;2022-09-27T15:38:10;12.87;;;5.50;;
12707;SDS011;6418;50.824;4.718;2022-09-27T15:40:59;13.63;;;5.10;;